地図

経路データ

SID SEASON NUMBER BASIN SUBBASIN NAME ISO_TIME NATURE LAT LON WMO_WIND WMO_PRES WMO_AGENCY TRACK_TYPE DIST2LAND LANDFALL IFLAG USA_AGENCY USA_ATCF_ID USA_LAT USA_LON USA_RECORD USA_STATUS USA_WIND USA_PRES USA_SSHS USA_R34_NE USA_R34_SE USA_R34_SW USA_R34_NW USA_R50_NE USA_R50_SE USA_R50_SW USA_R50_NW USA_R64_NE USA_R64_SE USA_R64_SW USA_R64_NW USA_POCI USA_ROCI USA_RMW USA_EYE TOKYO_LAT TOKYO_LON TOKYO_GRADE TOKYO_WIND TOKYO_PRES TOKYO_R50_DIR TOKYO_R50_LONG TOKYO_R50_SHORT TOKYO_R30_DIR TOKYO_R30_LONG TOKYO_R30_SHORT TOKYO_LAND CMA_LAT CMA_LON CMA_CAT CMA_WIND CMA_PRES HKO_LAT HKO_LON HKO_CAT HKO_WIND HKO_PRES NEWDELHI_LAT NEWDELHI_LON NEWDELHI_GRADE NEWDELHI_WIND NEWDELHI_PRES NEWDELHI_CI NEWDELHI_DP NEWDELHI_POCI REUNION_LAT REUNION_LON REUNION_TYPE REUNION_WIND REUNION_PRES REUNION_TNUM REUNION_CI REUNION_RMW REUNION_R34_NE REUNION_R34_SE REUNION_R34_SW REUNION_R34_NW REUNION_R50_NE REUNION_R50_SE REUNION_R50_SW REUNION_R50_NW REUNION_R64_NE REUNION_R64_SE REUNION_R64_SW REUNION_R64_NW BOM_LAT BOM_LON BOM_TYPE BOM_WIND BOM_PRES BOM_TNUM BOM_CI BOM_RMW BOM_R34_NE BOM_R34_SE BOM_R34_SW BOM_R34_NW BOM_R50_NE BOM_R50_SE BOM_R50_SW BOM_R50_NW BOM_R64_NE BOM_R64_SE BOM_R64_SW BOM_R64_NW BOM_ROCI BOM_POCI BOM_EYE BOM_POS_METHOD BOM_PRES_METHOD NADI_LAT NADI_LON NADI_CAT NADI_WIND NADI_PRES WELLINGTON_LAT WELLINGTON_LON WELLINGTON_WIND WELLINGTON_PRES DS824_LAT DS824_LON DS824_STAGE DS824_WIND DS824_PRES TD9636_LAT TD9636_LON TD9636_STAGE TD9636_WIND TD9636_PRES TD9635_LAT TD9635_LON TD9635_WIND TD9635_PRES TD9635_ROCI NEUMANN_LAT NEUMANN_LON NEUMANN_CLASS NEUMANN_WIND NEUMANN_PRES MLC_LAT MLC_LON MLC_CLASS MLC_WIND MLC_PRES USA_GUST BOM_GUST BOM_GUST_PER REUNION_GUST REUNION_GUST_PER USA_SEAHGT USA_SEARAD_NE USA_SEARAD_SE USA_SEARAD_SW USA_SEARAD_NW STORM_SPEED STORM_DIR
1906273N21126 1906 42 WP MM NOT_NAMED 1906-09-29 16:00:00 NR 20.7000 125.500 main 422 422 __________O___ -1 20.7000 125.500 7 1 0
1906273N21126 1906 42 WP MM NOT_NAMED 1906-09-29 18:00:00 NR 20.7222 125.486 main 422 421 __________P___ -1 20.7222 125.486 7 1 313
1906273N21126 1906 42 WP MM NOT_NAMED 1906-09-29 21:00:00 NR 20.7661 125.433 main 421 413 __________P___ -1 20.7661 125.433 7 2 303
1906273N21126 1906 42 WP MM NOT_NAMED 1906-09-30 00:00:00 NR 20.8367 125.297 main 413 397 __________P___ -1 20.8367 125.297 7 4 296
1906273N21126 1906 42 WP MM NOT_NAMED 1906-09-30 03:00:00 NR 20.9501 125.028 main 405 398 __________P___ -1 20.9501 125.028 7 6 294
1906273N21126 1906 42 WP MM NOT_NAMED 1906-09-30 04:00:00 NR 21.0000 124.900 main 398 386 __________O___ -1 21.0000 124.900 2 9 292
1906273N21126 1906 42 WP MM NOT_NAMED 1906-09-30 06:00:00 NR 21.1200 124.582 main 386 327 __________P___ -1 21.1200 124.582 2 11 292
1906273N21126 1906 42 WP MM NOT_NAMED 1906-09-30 09:00:00 NR 21.3434 123.992 main 327 250 __________P___ -1 21.3434 123.992 2 13 293
1906273N21126 1906 42 WP MM NOT_NAMED 1906-09-30 12:00:00 NR 21.6071 123.336 main 250 185 __________P___ -1 21.6071 123.336 2 13 295
1906273N21126 1906 42 WP MM NOT_NAMED 1906-09-30 15:00:00 NR 21.8986 122.696 main 185 164 __________P___ -1 21.8986 122.696 2 13 297
1906273N21126 1906 42 WP MM NOT_NAMED 1906-09-30 16:00:00 NR 22.0000 122.500 main 164 128 __________O___ -1 22.0000 122.500 2 11 301
1906273N21126 1906 42 WP MM NOT_NAMED 1906-09-30 18:00:00 NR 22.1884 122.172 main 128 68 __________P___ -1 22.1884 122.172 2 10 304
1906273N21126 1906 42 WP MM NOT_NAMED 1906-09-30 21:00:00 NR 22.4904 121.729 main 68 15 __________P___ -1 22.4904 121.729 2 10 309
1906273N21126 1906 42 WP MM NOT_NAMED 1906-10-01 00:00:00 NR 22.8181 121.342 main 15 0 __________P___ -1 22.8181 121.342 2 10 316
1906273N21126 1906 42 WP MM NOT_NAMED 1906-10-01 03:00:00 NR 23.1744 121.003 main 0 0 __________P___ -1 23.1744 121.003 2 9 320
1906273N21126 1906 42 WP MM NOT_NAMED 1906-10-01 04:00:00 NR 23.3000 120.900 main 0 0 __________O___ -1 23.3000 120.900 2 10 319
1906273N21126 1906 42 WP MM NOT_NAMED 1906-10-01 06:00:00 NR 23.5603 120.640 main 0 0 __________P___ -1 23.5603 120.640 2 11 320
1906273N21126 1906 42 WP MM NOT_NAMED 1906-10-01 09:00:00 NR 23.9761 120.286 main 0 0 __________P___ -1 23.9761 120.286 2 10 326
1906273N21126 1906 42 WP MM NOT_NAMED 1906-10-01 12:00:00 NR 24.4111 120.022 main 52 52 __________P___ -1 24.4111 120.022 2 9 338
1906273N21126 1906 42 WP MM NOT_NAMED 1906-10-01 15:00:00 NR 24.8532 119.900 main 53 45 __________P___ -1 24.8532 119.900 2 9 349
1906273N21126 1906 42 WP MM NOT_NAMED 1906-10-01 16:00:00 NR 25.0000 119.900 main 45 30 __________O___ -1 25.0000 119.900 2 9 7
1906273N21126 1906 42 WP MM NOT_NAMED 1906-10-01 18:00:00 NR 25.2907 119.969 main 32 30 __________P___ -1 25.2907 119.969 2 9 22
1906273N21126 1906 42 WP MM NOT_NAMED 1906-10-01 21:00:00 NR 25.7201 120.217 main 54 54 __________P___ -1 25.7201 120.217 2 10 33
1906273N21126 1906 42 WP MM NOT_NAMED 1906-10-02 00:00:00 NR 26.1430 120.592 main 74 66 __________P___ -1 26.1430 120.592 2 11 41
1906273N21126 1906 42 WP MM NOT_NAMED 1906-10-02 03:00:00 NR 26.5613 121.042 main 81 81 __________P___ -1 26.5613 121.042 2 12 44
1906273N21126 1906 42 WP MM NOT_NAMED 1906-10-02 04:00:00 NR 26.7000 121.200 main 89 __________O___ -1 26.7000 121.200 2 12 45

デジタル台風データ・検索

IBTrACS Databaseについて

本データベースは、米国NOAAが公開する1842年以降の世界の熱帯低気圧のベストトラックデータアーカイブInternational Best Track Archive for Climate Stewardship (IBTrACS)を、ウェブで閲覧しやすい形式に変換したものです。

最終更新日:2021-10-19